WetterOnline ( https://www.wetteronline.at )

Wetter aktuell Paderborn

Aktuelles Wetter: Bad Lippspringe (158m)

6-stündlich | Neueste Meldungen
Ortszeit Temperatur Wetter
Di, 20.08. 2:00 13.3° C bewölkt
Mo, 19.08. 20:00 20.0° C leicht bewölkt
Mo, 19.08. 14:00 19.1° C bewölkt
Mo, 19.08. 8:00 13.8° C bewölkt
Mo, 19.08. 2:00 15.1° C bewölkt
So, 18.08. 20:00 17.4° C bewölkt
So, 18.08. 14:00 19.2° C Sprühregen
So, 18.08. 8:00 17.6° C leichter Regen
Ortszeit Temperatur Wetter
Di, 20.08. 3:30 11.4° C bewölkt
Di, 20.08. 3:20 11.4° C bewölkt
Di, 20.08. 3:10 11.3° C bewölkt
Di, 20.08. 3:00 11.4° C wolkig
Di, 20.08. 2:50 11.4° C wolkig
Di, 20.08. 2:40 11.7° C leicht bewölkt
Di, 20.08. 2:30 12.2° C leicht bewölkt
Di, 20.08. 2:00 13.3° C bewölkt
Di, 20.08. 1:30 13.4° C wolkig
Di, 20.08. 1:00 11.2° C leicht bewölkt
Di, 20.08. 0:30 11.4° C fast wolkenlos
Ortszeit Relative Feuchte Sichtweite
Di, 20.08. 2:00 79% 60 km
Mo, 19.08. 20:00 48% 65 km
Mo, 19.08. 14:00 52% 55 km
Mo, 19.08. 8:00 79% 50 km
Mo, 19.08. 2:00 90% 40 km
So, 18.08. 20:00 88% 15 km
So, 18.08. 14:00 91% 8 km
So, 18.08. 8:00 83% 26 km
Ortszeit Relative Feuchte Sichtweite
Di, 20.08. 3:30 90% 40 km
Di, 20.08. 3:20 90% -
Di, 20.08. 3:10 89% -
Di, 20.08. 3:00 88% 45 km
Di, 20.08. 2:50 88% -
Di, 20.08. 2:40 85% -
Di, 20.08. 2:30 84% 50 km
Di, 20.08. 2:00 79% 60 km
Di, 20.08. 1:30 76% 50 km
Di, 20.08. 1:00 89% 50 km
Di, 20.08. 0:30 89% 50 km
Ortszeit Niederschlagsmenge Niederschlagsart
Di, 20.08. 2:00 0.0 l/m2 in 6 Std. -
Mo, 19.08. 20:00 0.0 l/m2 in 12 Std. -
Mo, 19.08. 14:00 0.0 l/m2 in 6 Std. -
Mo, 19.08. 8:00 0.0 l/m2 in 12 Std. -
Mo, 19.08. 2:00 0.0 l/m2 in 6 Std. -
So, 18.08. 20:00 11 l/m2 in 12 Std. Regen
So, 18.08. 14:00 3 l/m2 in 6 Std. Regen
So, 18.08. 8:00 0.7 l/m2 in 12 Std. Regen
Ortszeit Niederschlagsmenge Niederschlagsart
Di, 20.08. 3:30 0.0 l/m2 in 1 Std. -
Di, 20.08. 3:20 keine Meldung -
Di, 20.08. 3:10 keine Meldung -
Di, 20.08. 3:00 0.0 l/m2 in 1 Std. -
Di, 20.08. 2:50 keine Meldung -
Di, 20.08. 2:40 keine Meldung -
Di, 20.08. 2:30 0.0 l/m2 in 1 Std. -
Di, 20.08. 2:00 0.0 l/m2 in 1 Std. -
Di, 20.08. 1:30 0.0 l/m2 in 1 Std. -
Di, 20.08. 1:00 0.0 l/m2 in 1 Std. -
Di, 20.08. 0:30 0.0 l/m2 in 1 Std. -
Ortszeit Stärke Spitze Richtung
km/h Bft. km/h Grad Sektor
Di, 20.08. 2:00 6 1 13 130° SO
Mo, 19.08. 20:00 9 2 43 240° SW
Mo, 19.08. 14:00 22 4 40 270° W
Mo, 19.08. 8:00 11 2 25 200° S
Mo, 19.08. 2:00 4 1 22 150° SO
So, 18.08. 20:00 13 3 41 260° W
So, 18.08. 14:00 11 2 29 170° S
So, 18.08. 8:00 15 3 28 210° SW
Ortszeit Stärke Spitze Richtung
km/h Bft. km/h Grad Sektor
Di, 20.08. 3:30 0 0 4 - -
Di, 20.08. 3:20 2 1 - 20° N
Di, 20.08. 3:10 2 1 - 70° O
Di, 20.08. 3:00 0 0 7 - -
Di, 20.08. 2:50 2 1 - 110° O
Di, 20.08. 2:40 4 1 - 160° S
Di, 20.08. 2:30 4 1 4 120° SO
Di, 20.08. 2:00 6 1 11 130° SO
Di, 20.08. 1:30 7 2 11 140° SO
Di, 20.08. 1:00 4 1 7 90° O
Di, 20.08. 0:30 4 1 7 80° O
Ortszeit Untergrenze Bedeckung Gattung
total tief tief mittel hoch
Di, 20.08. 2:00 1500 m 7/8 7/8 - - -
Mo, 19.08. 20:00 8100 m 4/8 0/8 - - -
Mo, 19.08. 14:00 1320 m 7/8 7/8 - - -
Mo, 19.08. 8:00 630 m 7/8 7/8 - - -
Mo, 19.08. 2:00 1020 m 8/8 5/8 - - -
So, 18.08. 20:00 420 m 7/8 7/8 - - -
So, 18.08. 14:00 390 m 7/8 7/8 - - -
So, 18.08. 8:00 570 m 8/8 8/8 - - -
Ortszeit Bedeckungsgrad in Achtel und Wolkenuntergrenze
Di, 20.08. 3:30 6(1500m) 7(2400m)
Di, 20.08. 3:20 6(1500m) 7(2400m)
Di, 20.08. 3:10 5(1500m) 6(2700m) 7(7800m)
Di, 20.08. 3:00 2(2700m) 5(7800m) 6(8400m)
Di, 20.08. 2:50 2(2700m) 5(7800m) 6(8400m)
Di, 20.08. 2:40 5(7800m) 6(8400m)
Di, 20.08. 2:30 4(8100m) 3(8400m)
Di, 20.08. 2:00 7(1500m) 7(8700m)
Di, 20.08. 1:30 6(1500m)
Di, 20.08. 1:00 2(1500m)
Di, 20.08. 0:30 1(9000m)
Ortszeit Luftdruck NN (hPa) Tendenz (hPa in 3 Std.)
Di, 20.08. 2:00 1020 + 1,3
Mo, 19.08. 20:00 1018 + 0,4
Mo, 19.08. 14:00 1017 + 1,2
Mo, 19.08. 8:00 1015 + 1,5
Mo, 19.08. 2:00 1011 + 1,0
So, 18.08. 20:00 1009 + 2,5
So, 18.08. 14:00 1004 - 1,9
So, 18.08. 8:00 1007 0,0
Ortszeit Luftdruck NN (hPa) Tendenz (hPa in 3 Std.)
Di, 20.08. 3:30 1021 + 0,6
Di, 20.08. 3:20 1021 keine Meldung
Di, 20.08. 3:10 1021 keine Meldung
Di, 20.08. 3:00 1021 + 0,8
Di, 20.08. 2:50 1021 keine Meldung
Di, 20.08. 2:40 1021 keine Meldung
Di, 20.08. 2:30 1020 + 1,0
Di, 20.08. 2:00 1020 + 1,3
Di, 20.08. 1:30 1020 + 1,4
Di, 20.08. 1:00 1020 + 1,4
Di, 20.08. 0:30 1020 + 1,1
Ortszeit Schneehöhe (cm)
Di, 20.08. 2:00 -
Mo, 19.08. 20:00 -
Mo, 19.08. 14:00 -
Mo, 19.08. 8:00 -
Mo, 19.08. 2:00 -
So, 18.08. 20:00 -
So, 18.08. 14:00 -
So, 18.08. 8:00 -
Ortszeit Schneehöhe (cm)
Di, 20.08. 3:30 -
Di, 20.08. 3:20 -
Di, 20.08. 3:10 -
Di, 20.08. 3:00 -
Di, 20.08. 2:50 -
Di, 20.08. 2:40 -
Di, 20.08. 2:30 -
Di, 20.08. 2:00 -
Di, 20.08. 1:30 -
Di, 20.08. 1:00 -
Di, 20.08. 0:30 -
Link zu dieser Seite / Seite empfehlen

Das Wetter in ...